Terminal Aerodrome Forecast
Issued by NWS

Home | Current Version | Previous Version | Text Only | Print | Product List | Glossary On
Versions: 1 2 3 4 5 6 7 8 9 10 11 12 13 14 15 16 17
000
FTUS44 KMAF 202300
TAFFST
TAF
KFST 202336Z 2100/2124 23010KT P6SM SCT080 SCT250
      TEMPO 2100/2102 VRB20G30KT 5SM TSRA BKN070CB
     FM210200 17010KT P6SM FEW040 BKN200
     FM211500 16011G21KT P6SM SCT080 SCT250=

USA.gov is the U.S. government's official web portal to all federal, state and local government web resources and services.